Marrakesch, Marokko

11:12 AM WET am 02. März 2015 (GMT +0000)
Menara | Change Station
CLOSE
Current Station
Flughafen
Location: Marrakech,
Höhe: 1529 ft
Wetterstationen in der Umgebung

Höhe 1529 ft 31.61 °N, 8.04 °W | Updated 12 minutes ago

Clear
Heiter
70 °F
gefühlte 70 °F
N
7
Wind Wechselnd Wind aus Ost

Heute
Max. -- | schwach -- °F
--% Regenrisiko
Gestern
Max. -- | schwach -- °F
Precip. -- inch
6:58 AM 6:30 PM
Zweites Viertel, 91% visible
Druck 30.27 inch
Sichtweite -9999.0 Meilen
Wolken
Taupunkt 50 °F
Feuchtigkeit 49%
Regen 0.00 inch
Schneehöhe Nicht verfügbar..
UV Nicht verfügbar..
Pollen Nicht verfügbar..
Luftqualität Nicht verfügbar..
Flu Activity Nicht verfügbar..
METAR GMMX 021100Z 08006KT 050V110 CAVOK 21/10 Q1025 NOSIG

More Conditions Fewer Conditions

Druck 30.27 inch
Sichtweite -9999.0 Meilen
Wolken
Taupunkt 50 °F
Feuchtigkeit 49%
Regen 0.00 inch
Schneehöhe Nicht verfügbar..
UV Nicht verfügbar..
Pollen Nicht verfügbar..
Luftqualität Nicht verfügbar..
Flu Activity Nicht verfügbar..
METAR GMMX 021100Z 08006KT 050V110 CAVOK 21/10 Q1025 NOSIG

More Conditions Fewer Conditions

10-Day Weather Forecast

Almanac

Astronomie

Mar. 02, 2015 Aufgang Untergang
Genaue Zeit
Bürgerliche Dämmerung
Nautische Dämmerung
Astronomische Dämmerung
Mond
Länge des sichtbaren Lichts
Tageslänge
Tomorrow will be .
, % of the Moon is Illuminated

Heutige Rekorde

Country Highs Country Lows

Community

WunderPhotos

Upload Photos

1,801,756 Fotos hochgeladen!

WunderBlogs® & News

Nearby

Luftqualität

  Luftqualität LQ Index Schadstoff
Not available.

Schneehöhe

Station Depth Höhe

Erdbebenaktivität

Stadt Distance Mag. Time & Date
Minimum magnitude displayed is 2.5.

küstennahe Wassertemperaturen

Ort Temperatur

Wetterstationen in der Umgebung